Time,TemperatureF,DewpointF,PressureIn,WindDirection,WindDirectionDegrees,WindSpeedMPH,WindSpeedGustMPH,Humidity,HourlyPrecipIn,Conditions,Clouds,dailyrainin,SoftwareType,DateUTC
2013-02-06 00:01:00,53.9,53.0,30.01,NNE,32,0.0,0.0,95,0.00,,,0.00,weatherlink.com 1.10,2013-02-06 06:01:00,
2013-02-06 00:16:00,54.1,53.0,30.02,NNE,32,0.0,1.0,96,0.00,,,0.00,weatherlink.com 1.10,2013-02-06 06:16:00,
2013-02-06 00:32:00,53.8,53.0,30.01,NNE,32,0.0,0.0,96,0.00,,,0.00,weatherlink.com 1.10,2013-02-06 06:32:00,
2013-02-06 00:46:00,53.6,53.0,30.02,NE,54,0.0,1.0,96,0.00,,,0.00,weatherlink.com 1.10,2013-02-06 06:46:00,
2013-02-06 01:01:00,54.0,53.0,30.02,ENE,65,0.0,1.0,96,0.00,,,0.00,weatherlink.com 1.10,2013-02-06 07:01:00,
2013-02-06 01:17:00,53.9,53.0,30.01,ENE,73,0.0,2.0,96,0.00,,,0.00,weatherlink.com 1.10,2013-02-06 07:17:00,
2013-02-06 01:31:00,53.8,53.0,30.02,ENE,74,0.0,1.0,96,0.00,,,0.00,weatherlink.com 1.10,2013-02-06 07:31:00,
2013-02-06 01:46:00,53.4,52.0,30.02,ENE,72,0.0,1.0,96,0.00,,,0.00,weatherlink.com 1.10,2013-02-06 07:46:00,
2013-02-06 02:01:00,53.1,52.0,30.02,ENE,72,0.0,0.0,96,0.00,,,0.00,weatherlink.com 1.10,2013-02-06 08:01:00,
2013-02-06 02:17:00,53.2,52.0,30.02,ENE,71,1.0,1.0,96,0.00,,,0.00,weatherlink.com 1.10,2013-02-06 08:17:00,
2013-02-06 02:31:00,53.1,52.0,30.02,ENE,70,0.0,0.0,96,0.00,,,0.00,weatherlink.com 1.10,2013-02-06 08:31:00,
2013-02-06 02:46:00,52.6,52.0,30.02,ENE,71,0.0,0.0,96,0.00,,,0.00,weatherlink.com 1.10,2013-02-06 08:46:00,
2013-02-06 03:01:00,53.1,52.0,30.02,ENE,71,0.0,1.0,97,0.00,,,0.00,weatherlink.com 1.10,2013-02-06 09:01:00,
2013-02-06 03:16:00,53.0,52.0,30.03,ENE,71,0.0,0.0,97,0.00,,,0.00,weatherlink.com 1.10,2013-02-06 09:16:00,
2013-02-06 03:31:00,52.9,52.0,30.03,ENE,71,0.0,1.0,97,0.00,,,0.00,weatherlink.com 1.10,2013-02-06 09:31:00,
2013-02-06 03:47:00,52.8,52.0,30.03,ENE,71,1.0,1.0,97,0.00,,,0.00,weatherlink.com 1.10,2013-02-06 09:47:00,
2013-02-06 04:02:00,52.9,52.0,30.03,ENE,70,1.0,2.0,97,0.00,,,0.00,weatherlink.com 1.10,2013-02-06 10:02:00,
2013-02-06 04:17:00,52.9,52.0,30.04,ENE,70,1.0,1.0,97,0.00,,,0.00,weatherlink.com 1.10,2013-02-06 10:17:00,
2013-02-06 04:32:00,53.0,52.0,30.05,NE,56,1.0,1.0,97,0.00,,,0.00,weatherlink.com 1.10,2013-02-06 10:32:00,
2013-02-06 04:47:00,53.2,52.0,30.05,East,79,1.0,2.0,97,0.00,,,0.00,weatherlink.com 1.10,2013-02-06 10:47:00,
2013-02-06 05:02:00,53.2,52.0,30.05,ENE,58,0.0,1.0,97,0.00,,,0.00,weatherlink.com 1.10,2013-02-06 11:02:00,
2013-02-06 05:17:00,53.4,53.0,30.05,ENE,57,0.0,1.0,97,0.00,,,0.00,weatherlink.com 1.10,2013-02-06 11:17:00,
2013-02-06 05:32:00,53.6,53.0,30.05,ENE,77,1.0,2.0,97,0.00,,,0.00,weatherlink.com 1.10,2013-02-06 11:32:00,
2013-02-06 05:48:00,53.6,53.0,30.05,NE,48,0.0,1.0,97,0.00,,,0.00,weatherlink.com 1.10,2013-02-06 11:48:00,
2013-02-06 06:02:00,53.6,53.0,30.06,North,360,0.0,1.0,97,0.00,,,0.00,weatherlink.com 1.10,2013-02-06 12:02:00,
2013-02-06 06:17:00,53.4,53.0,30.06,North,360,0.0,1.0,97,0.00,,,0.00,weatherlink.com 1.10,2013-02-06 12:17:00,
2013-02-06 06:32:00,53.4,53.0,30.06,North,360,0.0,1.0,97,0.00,,,0.00,weatherlink.com 1.10,2013-02-06 12:32:00,
2013-02-06 06:47:00,53.6,53.0,30.06,North,1,0.0,1.0,97,0.00,,,0.00,weatherlink.com 1.10,2013-02-06 12:47:00,
2013-02-06 07:02:00,53.8,53.0,30.06,ENE,58,0.0,1.0,97,0.00,,,0.00,weatherlink.com 1.10,2013-02-06 13:02:00,
2013-02-06 07:17:00,54.0,53.0,30.07,ENE,58,0.0,1.0,97,0.00,,,0.00,weatherlink.com 1.10,2013-02-06 13:17:00,
2013-02-06 07:32:00,54.0,53.0,30.07,ESE,115,0.0,0.0,97,0.00,,,0.00,weatherlink.com 1.10,2013-02-06 13:32:00,
2013-02-06 07:47:00,54.4,54.0,30.08,SE,135,0.0,1.0,97,0.00,,,0.00,weatherlink.com 1.10,2013-02-06 13:47:00,
2013-02-06 08:02:00,55.2,54.0,30.08,East,91,1.0,1.0,97,0.00,,,0.00,weatherlink.com 1.10,2013-02-06 14:02:00,
2013-02-06 08:17:00,56.5,56.0,30.09,ENE,72,2.0,4.0,97,0.00,,,0.00,weatherlink.com 1.10,2013-02-06 14:17:00,
2013-02-06 08:32:00,57.7,57.0,30.09,SE,131,1.0,3.0,97,0.00,,,0.00,weatherlink.com 1.10,2013-02-06 14:32:00,
2013-02-06 08:47:00,58.6,57.0,30.08,ESE,113,0.0,3.0,93,0.00,,,0.00,weatherlink.com 1.10,2013-02-06 14:47:00,
2013-02-06 09:02:00,59.7,57.0,30.09,ENE,77,2.0,3.0,91,0.00,,,0.00,weatherlink.com 1.10,2013-02-06 15:02:00,
2013-02-06 09:17:00,61.1,58.0,30.09,SE,136,1.0,2.0,89,0.00,,,0.00,weatherlink.com 1.10,2013-02-06 15:17:00,
2013-02-06 09:32:00,61.7,58.0,30.09,ENE,72,2.0,4.0,88,0.00,,,0.00,weatherlink.com 1.10,2013-02-06 15:32:00,
2013-02-06 09:47:00,62.4,59.0,30.10,SE,132,2.0,4.0,87,0.00,,,0.00,weatherlink.com 1.10,2013-02-06 15:47:00,
2013-02-06 10:02:00,63.3,59.0,30.10,ESE,115,0.0,3.0,85,0.00,,,0.00,weatherlink.com 1.10,2013-02-06 16:02:00,
2013-02-06 10:17:00,64.0,59.0,30.10,ESE,108,2.0,5.0,84,0.00,,,0.00,weatherlink.com 1.10,2013-02-06 16:17:00,
2013-02-06 10:32:00,64.0,59.0,30.10,ESE,122,2.0,5.0,83,0.00,,,0.00,weatherlink.com 1.10,2013-02-06 16:32:00,
2013-02-06 10:47:00,65.1,59.0,30.09,ENE,70,1.0,3.0,81,0.00,,,0.00,weatherlink.com 1.10,2013-02-06 16:47:00,
2013-02-06 11:03:00,65.9,59.0,30.09,SSE,162,2.0,7.0,79,0.00,,,0.00,weatherlink.com 1.10,2013-02-06 17:03:00,
2013-02-06 11:18:00,66.6,60.0,30.08,East,91,3.0,5.0,78,0.00,,,0.00,weatherlink.com 1.10,2013-02-06 17:18:00,
2013-02-06 11:33:00,67.7,60.0,30.07,SSE,154,1.0,4.0,76,0.00,,,0.00,weatherlink.com 1.10,2013-02-06 17:33:00,
2013-02-06 11:48:00,67.4,59.0,30.07,SE,129,0.0,5.0,75,0.00,,,0.00,weatherlink.com 1.10,2013-02-06 17:48:00,
2013-02-06 12:03:00,66.9,59.0,30.06,East,100,1.0,4.0,76,0.00,,,0.00,weatherlink.com 1.10,2013-02-06 18:03:00,
2013-02-06 12:18:00,66.9,59.0,30.06,ENE,64,5.0,5.0,77,0.00,,,0.00,weatherlink.com 1.10,2013-02-06 18:18:00,
2013-02-06 12:33:00,66.5,59.0,30.06,ESE,119,2.0,5.0,76,0.00,,,0.00,weatherlink.com 1.10,2013-02-06 18:33:00,
2013-02-06 12:48:00,66.7,59.0,30.05,ESE,103,3.0,4.0,76,0.00,,,0.00,weatherlink.com 1.10,2013-02-06 18:48:00,
2013-02-06 13:03:00,66.8,59.0,30.04,SE,124,1.0,3.0,76,0.00,,,0.00,weatherlink.com 1.10,2013-02-06 19:03:00,
2013-02-06 13:18:00,67.7,59.0,30.03,ESE,111,1.0,3.0,74,0.00,,,0.00,weatherlink.com 1.10,2013-02-06 19:18:00,
2013-02-06 13:33:00,68.0,59.0,30.02,SSE,152,2.0,6.0,72,0.00,,,0.00,weatherlink.com 1.10,2013-02-06 19:33:00,
2013-02-06 13:48:00,67.6,58.0,30.02,ESE,113,1.0,6.0,72,0.00,,,0.00,weatherlink.com 1.10,2013-02-06 19:48:00,
2013-02-06 14:03:00,67.2,59.0,30.01,ENE,75,3.0,6.0,74,0.00,,,0.00,weatherlink.com 1.10,2013-02-06 20:03:00,
2013-02-06 14:18:00,66.9,59.0,30.01,ENE,63,2.0,4.0,75,0.00,,,0.00,weatherlink.com 1.10,2013-02-06 20:18:00,
2013-02-06 14:33:00,66.9,59.0,30.00,ESE,110,0.0,4.0,77,0.00,,,0.00,weatherlink.com 1.10,2013-02-06 20:33:00,
2013-02-06 14:48:00,66.9,59.0,30.00,ENE,72,2.0,5.0,75,0.00,,,0.00,weatherlink.com 1.10,2013-02-06 20:48:00,
2013-02-06 15:03:00,66.2,59.0,29.99,ENE,61,3.0,4.0,77,0.00,,,0.00,weatherlink.com 1.10,2013-02-06 21:03:00,
2013-02-06 15:18:00,65.6,59.0,29.97,ESE,110,1.0,5.0,78,0.00,,,0.00,weatherlink.com 1.10,2013-02-06 21:18:00,
2013-02-06 15:33:00,64.5,59.0,29.97,ESE,115,0.0,2.0,82,0.00,,,0.00,weatherlink.com 1.10,2013-02-06 21:33:00,
2013-02-06 15:48:00,63.6,58.0,29.98,SSE,155,1.0,3.0,83,0.00,,,0.00,weatherlink.com 1.10,2013-02-06 21:48:00,
2013-02-06 16:03:00,63.2,58.0,29.99,SE,141,0.0,2.0,84,0.00,,,0.00,weatherlink.com 1.10,2013-02-06 22:03:00,
2013-02-06 16:18:00,62.9,59.0,30.00,SSW,193,1.0,1.0,86,0.01,,,0.01,weatherlink.com 1.10,2013-02-06 22:18:00,
2013-02-06 16:33:00,62.5,59.0,30.00,West,262,0.0,1.0,88,0.01,,,0.01,weatherlink.com 1.10,2013-02-06 22:33:00,
2013-02-06 16:48:00,62.1,59.0,30.00,West,262,0.0,1.0,88,0.01,,,0.01,weatherlink.com 1.10,2013-02-06 22:48:00,
2013-02-06 17:03:00,62.0,59.0,30.02,West,262,0.0,1.0,89,0.01,,,0.01,weatherlink.com 1.10,2013-02-06 23:03:00,
2013-02-06 17:18:00,61.6,58.0,30.02,West,269,0.0,2.0,89,0.00,,,0.01,weatherlink.com 1.10,2013-02-06 23:18:00,
2013-02-06 17:33:00,61.3,58.0,30.01,West,274,0.0,1.0,90,0.00,,,0.01,weatherlink.com 1.10,2013-02-06 23:33:00,
2013-02-06 17:48:00,61.0,58.0,30.01,West,274,0.0,0.0,90,0.00,,,0.01,weatherlink.com 1.10,2013-02-06 23:48:00,
2013-02-06 18:03:00,60.6,58.0,30.00,West,274,0.0,0.0,91,0.00,,,0.01,weatherlink.com 1.10,2013-02-07 00:03:00,
2013-02-06 18:18:00,60.2,58.0,30.00,West,274,0.0,0.0,92,0.00,,,0.01,weatherlink.com 1.10,2013-02-07 00:18:00,
2013-02-06 18:33:00,59.9,58.0,30.01,West,274,0.0,0.0,93,0.00,,,0.01,weatherlink.com 1.10,2013-02-07 00:33:00,
2013-02-06 18:48:00,59.6,58.0,30.00,West,274,0.0,1.0,94,0.01,,,0.02,weatherlink.com 1.10,2013-02-07 00:48:00,
2013-02-06 19:03:00,59.4,58.0,30.00,West,276,0.0,1.0,94,0.01,,,0.02,weatherlink.com 1.10,2013-02-07 01:03:00,
2013-02-06 19:18:00,59.3,58.0,29.98,West,277,0.0,1.0,95,0.03,,,0.04,weatherlink.com 1.10,2013-02-07 01:18:00,
2013-02-06 19:34:00,59.2,58.0,29.98,West,277,0.0,1.0,95,0.05,,,0.06,weatherlink.com 1.10,2013-02-07 01:34:00,
2013-02-06 19:48:00,59.2,58.0,29.99,West,277,0.0,0.0,95,0.05,,,0.07,weatherlink.com 1.10,2013-02-07 01:48:00,
2013-02-06 20:04:00,59.2,58.0,30.01,West,277,0.0,0.0,95,0.06,,,0.08,weatherlink.com 1.10,2013-02-07 02:04:00,
2013-02-06 20:18:00,59.2,58.0,30.02,West,277,0.0,0.0,96,0.06,,,0.10,weatherlink.com 1.10,2013-02-07 02:18:00,
2013-02-06 20:33:00,59.2,58.0,30.02,West,277,0.0,0.0,96,0.06,,,0.12,weatherlink.com 1.10,2013-02-07 02:33:00,
2013-02-06 20:48:00,59.2,58.0,30.02,SW,214,1.0,1.0,96,0.09,,,0.16,weatherlink.com 1.10,2013-02-07 02:48:00,
2013-02-06 21:03:00,59.3,58.0,30.02,SW,214,1.0,1.0,96,0.11,,,0.19,weatherlink.com 1.10,2013-02-07 03:03:00,
2013-02-06 21:19:00,59.3,58.0,30.02,SSE,149,1.0,2.0,96,0.13,,,0.23,weatherlink.com 1.10,2013-02-07 03:19:00,
2013-02-06 21:33:00,59.2,58.0,30.02,SSE,153,1.0,3.0,96,0.14,,,0.27,weatherlink.com 1.10,2013-02-07 03:33:00,
2013-02-06 21:48:00,59.0,58.0,30.01,SE,134,0.0,3.0,96,0.15,,,0.31,weatherlink.com 1.10,2013-02-07 03:48:00,
2013-02-06 22:03:00,58.8,58.0,30.00,SE,146,0.0,3.0,96,0.14,,,0.33,weatherlink.com 1.10,2013-02-07 04:03:00,
2013-02-06 22:19:00,58.6,58.0,30.00,ESE,115,0.0,2.0,96,0.11,,,0.34,weatherlink.com 1.10,2013-02-07 04:19:00,
2013-02-06 22:33:00,58.5,57.0,30.00,SSE,163,2.0,3.0,96,0.08,,,0.35,weatherlink.com 1.10,2013-02-07 04:33:00,
2013-02-06 22:49:00,58.4,57.0,30.00,SE,146,2.0,3.0,96,0.06,,,0.37,weatherlink.com 1.10,2013-02-07 04:49:00,
2013-02-06 23:04:00,58.4,57.0,29.99,SE,143,0.0,3.0,96,0.06,,,0.39,weatherlink.com 1.10,2013-02-07 05:04:00,
2013-02-06 23:19:00,58.2,57.0,29.98,SE,146,0.0,1.0,96,0.07,,,0.41,weatherlink.com 1.10,2013-02-07 05:19:00,
2013-02-06 23:33:00,58.1,57.0,29.97,SE,128,1.0,2.0,96,0.08,,,0.43,weatherlink.com 1.10,2013-02-07 05:33:00,
2013-02-06 23:49:00,58.1,57.0,29.95,SSE,153,1.0,6.0,96,0.07,,,0.44,weatherlink.com 1.10,2013-02-07 05:49:00,